sensor_id;sensor_type;location;lat;lon;timestamp;pressure;altitude;pressure_sealevel;temperature;humidity
7836;BME280;3963;42.658;23.298;2023-01-16T00:01:05;58240.88;;;1.09;100.00
7836;BME280;3963;42.658;23.298;2023-01-16T00:03:32;58265.75;;;1.06;100.00
7836;BME280;3963;42.658;23.298;2023-01-16T00:05:59;58281.84;;;1.14;100.00
7836;BME280;3963;42.658;23.298;2023-01-16T00:08:26;58268.03;;;1.13;100.00
7836;BME280;3963;42.658;23.298;2023-01-16T00:10:54;58243.59;;;0.99;100.00
7836;BME280;3963;42.658;23.298;2023-01-16T00:13:20;58259.69;;;0.93;100.00
7836;BME280;3963;42.658;23.298;2023-01-16T00:15:49;58249.94;;;0.91;100.00
7836;BME280;3963;42.658;23.298;2023-01-16T00:18:17;58224.28;;;0.86;100.00
7836;BME280;3963;42.658;23.298;2023-01-16T00:20:45;58222.63;;;0.82;100.00
7836;BME280;3963;42.658;23.298;2023-01-16T00:23:12;58184.25;;;0.62;100.00
7836;BME280;3963;42.658;23.298;2023-01-16T00:25:39;58237.03;;;0.71;100.00
7836;BME280;3963;42.658;23.298;2023-01-16T00:28:08;58228.31;;;0.70;100.00
7836;BME280;3963;42.658;23.298;2023-01-16T00:30:35;58185.13;;;0.58;100.00
7836;BME280;3963;42.658;23.298;2023-01-16T00:33:03;58200.56;;;0.48;100.00
7836;BME280;3963;42.658;23.298;2023-01-16T00:35:30;58190.06;;;0.53;100.00
7836;BME280;3963;42.658;23.298;2023-01-16T00:37:57;58179.88;;;0.53;100.00
7836;BME280;3963;42.658;23.298;2023-01-16T00:40:23;58198.31;;;0.56;100.00
7836;BME280;3963;42.658;23.298;2023-01-16T00:42:50;58201.81;;;0.54;100.00
7836;BME280;3963;42.658;23.298;2023-01-16T00:45:19;58181.72;;;0.47;100.00
7836;BME280;3963;42.658;23.298;2023-01-16T00:47:45;58186.34;;;0.35;100.00
7836;BME280;3963;42.658;23.298;2023-01-16T00:50:12;58169.78;;;0.26;100.00
7836;BME280;3963;42.658;23.298;2023-01-16T00:52:39;58151.69;;;0.19;100.00
7836;BME280;3963;42.658;23.298;2023-01-16T00:55:06;58124.31;;;0.07;100.00
7836;BME280;3963;42.658;23.298;2023-01-16T00:57:33;58104.13;;;-0.17;100.00
7836;BME280;3963;42.658;23.298;2023-01-16T00:59:59;58169.13;;;-0.06;100.00
7836;BME280;3963;42.658;23.298;2023-01-16T01:02:28;58115.38;;;-0.02;100.00
7836;BME280;3963;42.658;23.298;2023-01-16T01:04:54;58126.69;;;0.02;100.00
7836;BME280;3963;42.658;23.298;2023-01-16T01:07:21;58160.78;;;0.03;100.00
7836;BME280;3963;42.658;23.298;2023-01-16T01:09:48;58116.00;;;0.02;100.00
7836;BME280;3963;42.658;23.298;2023-01-16T01:12:15;58161.59;;;0.11;100.00
7836;BME280;3963;42.658;23.298;2023-01-16T01:14:42;58164.41;;;0.19;100.00
7836;BME280;3963;42.658;23.298;2023-01-16T01:17:08;58143.88;;;0.28;100.00
7836;BME280;3963;42.658;23.298;2023-01-16T01:19:37;58157.31;;;0.34;100.00
7836;BME280;3963;42.658;23.298;2023-01-16T01:22:03;58182.66;;;0.46;100.00
7836;BME280;3963;42.658;23.298;2023-01-16T01:24:31;58176.72;;;0.50;100.00
7836;BME280;3963;42.658;23.298;2023-01-16T01:26:58;58212.44;;;0.52;100.00
7836;BME280;3963;42.658;23.298;2023-01-16T01:29:25;58231.47;;;0.59;100.00
7836;BME280;3963;42.658;23.298;2023-01-16T01:31:51;58196.63;;;0.67;100.00
7836;BME280;3963;42.658;23.298;2023-01-16T01:34:18;58245.19;;;0.72;100.00
7836;BME280;3963;42.658;23.298;2023-01-16T01:36:46;58250.28;;;0.72;100.00
7836;BME280;3963;42.658;23.298;2023-01-16T01:39:13;58189.34;;;0.77;100.00
7836;BME280;3963;42.658;23.298;2023-01-16T01:41:40;58229.56;;;0.76;100.00
7836;BME280;3963;42.658;23.298;2023-01-16T01:44:43;58211.13;;;0.73;100.00
7836;BME280;3963;42.658;23.298;2023-01-16T01:47:11;58230.63;;;0.77;100.00
7836;BME280;3963;42.658;23.298;2023-01-16T01:49:38;58253.72;;;0.82;100.00
7836;BME280;3963;42.658;23.298;2023-01-16T01:52:07;58203.03;;;0.90;100.00
7836;BME280;3963;42.658;23.298;2023-01-16T01:54:38;58231.31;;;0.68;100.00
7836;BME280;3963;42.658;23.298;2023-01-16T01:57:09;58235.59;;;0.75;100.00
7836;BME280;3963;42.658;23.298;2023-01-16T01:59:39;58270.84;;;0.91;100.00
7836;BME280;3963;42.658;23.298;2023-01-16T02:02:08;58250.03;;;1.08;100.00
7836;BME280;3963;42.658;23.298;2023-01-16T02:04:39;58248.09;;;1.11;100.00
7836;BME280;3963;42.658;23.298;2023-01-16T02:07:11;58240.53;;;0.84;100.00
7836;BME280;3963;42.658;23.298;2023-01-16T02:09:39;58251.00;;;0.92;100.00
7836;BME280;3963;42.658;23.298;2023-01-16T02:12:09;58243.28;;;0.89;100.00
7836;BME280;3963;42.658;23.298;2023-01-16T02:14:40;58214.03;;;0.69;100.00
7836;BME280;3963;42.658;23.298;2023-01-16T02:17:09;58176.00;;;0.59;100.00
7836;BME280;3963;42.658;23.298;2023-01-16T02:20:08;58207.06;;;0.45;100.00
7836;BME280;3963;42.658;23.298;2023-01-16T02:22:52;58215.75;;;0.61;100.00
7836;BME280;3963;42.658;23.298;2023-01-16T02:26:01;58230.09;;;0.62;100.00
7836;BME280;3963;42.658;23.298;2023-01-16T02:29:01;58238.44;;;0.82;100.00
7836;BME280;3963;42.658;23.298;2023-01-16T02:31:40;58244.66;;;0.86;100.00
7836;BME280;3963;42.658;23.298;2023-01-16T02:34:22;58274.63;;;0.97;100.00
7836;BME280;3963;42.658;23.298;2023-01-16T02:37:01;58276.38;;;1.04;100.00
7836;BME280;3963;42.658;23.298;2023-01-16T02:39:37;58240.63;;;1.01;100.00
7836;BME280;3963;42.658;23.298;2023-01-16T02:42:12;58212.78;;;0.77;100.00
7836;BME280;3963;42.658;23.298;2023-01-16T02:44:48;58235.34;;;0.82;100.00
7836;BME280;3963;42.658;23.298;2023-01-16T02:47:23;58249.16;;;0.68;100.00
7836;BME280;3963;42.658;23.298;2023-01-16T02:49:57;58199.88;;;0.57;100.00
7836;BME280;3963;42.658;23.298;2023-01-16T02:52:32;58157.84;;;0.20;100.00
7836;BME280;3963;42.658;23.298;2023-01-16T02:55:06;58126.59;;;-0.15;100.00
7836;BME280;3963;42.658;23.298;2023-01-16T02:57:36;58170.88;;;0.15;100.00
7836;BME280;3963;42.658;23.298;2023-01-16T03:00:06;58172.75;;;0.24;100.00
7836;BME280;3963;42.658;23.298;2023-01-16T03:02:36;58165.09;;;0.24;100.00
7836;BME280;3963;42.658;23.298;2023-01-16T03:05:03;58184.06;;;0.13;100.00
7836;BME280;3963;42.658;23.298;2023-01-16T03:07:49;58154.50;;;-0.03;100.00
7836;BME280;3963;42.658;23.298;2023-01-16T03:10:35;58131.50;;;0.09;100.00
7836;BME280;3963;42.658;23.298;2023-01-16T03:13:14;58190.56;;;0.24;100.00
7836;BME280;3963;42.658;23.298;2023-01-16T03:15:49;58185.28;;;0.34;100.00
7836;BME280;3963;42.658;23.298;2023-01-16T03:18:24;58195.47;;;0.48;100.00
7836;BME280;3963;42.658;23.298;2023-01-16T03:20:59;58157.81;;;0.49;100.00
7836;BME280;3963;42.658;23.298;2023-01-16T03:23:31;58185.47;;;0.39;100.00
7836;BME280;3963;42.658;23.298;2023-01-16T03:26:02;58164.41;;;0.33;100.00
7836;BME280;3963;42.658;23.298;2023-01-16T03:28:35;58226.38;;;0.44;100.00
7836;BME280;3963;42.658;23.298;2023-01-16T03:31:10;58212.19;;;0.60;100.00
7836;BME280;3963;42.658;23.298;2023-01-16T03:33:45;58210.50;;;0.55;100.00
7836;BME280;3963;42.658;23.298;2023-01-16T03:36:22;58179.50;;;0.28;100.00
7836;BME280;3963;42.658;23.298;2023-01-16T03:38:51;58184.44;;;0.38;100.00
7836;BME280;3963;42.658;23.298;2023-01-16T03:41:21;58159.41;;;0.21;100.00
7836;BME280;3963;42.658;23.298;2023-01-16T03:43:54;58171.25;;;0.25;100.00
7836;BME280;3963;42.658;23.298;2023-01-16T03:46:26;58165.81;;;0.30;100.00
7836;BME280;3963;42.658;23.298;2023-01-16T03:49:01;58146.69;;;0.21;100.00
7836;BME280;3963;42.658;23.298;2023-01-16T03:51:32;58205.47;;;0.29;100.00
7836;BME280;3963;42.658;23.298;2023-01-16T03:54:03;58189.69;;;0.43;100.00
7836;BME280;3963;42.658;23.298;2023-01-16T03:56:35;58183.81;;;0.49;100.00
7836;BME280;3963;42.658;23.298;2023-01-16T03:59:03;58197.59;;;0.50;100.00
7836;BME280;3963;42.658;23.298;2023-01-16T04:01:36;58176.63;;;0.33;100.00
7836;BME280;3963;42.658;23.298;2023-01-16T04:04:07;58208.38;;;0.39;100.00
7836;BME280;3963;42.658;23.298;2023-01-16T04:06:38;58176.19;;;0.35;100.00
7836;BME280;3963;42.658;23.298;2023-01-16T04:09:13;58155.47;;;0.39;100.00
7836;BME280;3963;42.658;23.298;2023-01-16T04:11:42;58196.72;;;0.40;100.00
7836;BME280;3963;42.658;23.298;2023-01-16T04:14:12;58245.38;;;0.62;100.00
7836;BME280;3963;42.658;23.298;2023-01-16T04:16:40;58191.53;;;0.52;100.00
7836;BME280;3963;42.658;23.298;2023-01-16T04:19:12;58170.66;;;0.37;100.00
7836;BME280;3963;42.658;23.298;2023-01-16T04:21:42;58183.28;;;0.49;100.00
7836;BME280;3963;42.658;23.298;2023-01-16T04:24:10;58178.63;;;0.47;100.00
7836;BME280;3963;42.658;23.298;2023-01-16T04:26:37;58202.16;;;0.50;100.00
7836;BME280;3963;42.658;23.298;2023-01-16T04:29:04;58203.19;;;0.51;100.00
7836;BME280;3963;42.658;23.298;2023-01-16T04:31:31;58240.59;;;0.57;100.00
7836;BME280;3963;42.658;23.298;2023-01-16T04:33:57;58212.00;;;0.54;100.00
7836;BME280;3963;42.658;23.298;2023-01-16T04:36:26;58198.19;;;0.24;100.00
7836;BME280;3963;42.658;23.298;2023-01-16T04:38:52;58149.66;;;0.05;100.00
7836;BME280;3963;42.658;23.298;2023-01-16T04:41:19;58140.19;;;-0.05;100.00
7836;BME280;3963;42.658;23.298;2023-01-16T04:44:00;58133.09;;;-0.04;100.00
7836;BME280;3963;42.658;23.298;2023-01-16T04:46:26;58150.91;;;-0.04;100.00
7836;BME280;3963;42.658;23.298;2023-01-16T04:48:53;58165.25;;;-0.15;100.00
7836;BME280;3963;42.658;23.298;2023-01-16T04:51:20;58177.28;;;0.09;100.00
7836;BME280;3963;42.658;23.298;2023-01-16T04:53:49;58198.16;;;0.10;100.00
7836;BME280;3963;42.658;23.298;2023-01-16T04:56:16;58154.91;;;-0.05;100.00
7836;BME280;3963;42.658;23.298;2023-01-16T04:58:43;58126.94;;;-0.34;100.00
7836;BME280;3963;42.658;23.298;2023-01-16T05:01:09;58138.09;;;-0.21;100.00
7836;BME280;3963;42.658;23.298;2023-01-16T05:03:36;58195.59;;;-0.05;100.00
7836;BME280;3963;42.658;23.298;2023-01-16T05:06:03;58228.06;;;0.07;100.00
7836;BME280;3963;42.658;23.298;2023-01-16T05:08:30;58131.94;;;-0.08;100.00
7836;BME280;3963;42.658;23.298;2023-01-16T05:10:59;58165.63;;;0.10;100.00
7836;BME280;3963;42.658;23.298;2023-01-16T05:13:26;58197.56;;;0.21;100.00
7836;BME280;3963;42.658;23.298;2023-01-16T05:15:53;58138.44;;;0.04;100.00
7836;BME280;3963;42.658;23.298;2023-01-16T05:18:20;58126.16;;;0.16;100.00
7836;BME280;3963;42.658;23.298;2023-01-16T05:20:47;58183.00;;;0.12;100.00
7836;BME280;3963;42.658;23.298;2023-01-16T05:23:14;58184.41;;;0.09;100.00
7836;BME280;3963;42.658;23.298;2023-01-16T05:25:41;58142.28;;;-0.17;100.00
7836;BME280;3963;42.658;23.298;2023-01-16T05:28:09;58129.31;;;-0.10;100.00
7836;BME280;3963;42.658;23.298;2023-01-16T05:30:36;58135.28;;;-0.14;100.00
7836;BME280;3963;42.658;23.298;2023-01-16T05:33:03;58103.53;;;-0.35;100.00
7836;BME280;3963;42.658;23.298;2023-01-16T05:35:31;58119.41;;;-0.17;100.00
7836;BME280;3963;42.658;23.298;2023-01-16T05:37:58;58130.56;;;-0.04;100.00
7836;BME280;3963;42.658;23.298;2023-01-16T05:40:25;58151.13;;;-0.26;100.00
7836;BME280;3963;42.658;23.298;2023-01-16T05:42:52;58139.66;;;-0.05;100.00
7836;BME280;3963;42.658;23.298;2023-01-16T05:45:20;58116.94;;;-0.29;100.00
7836;BME280;3963;42.658;23.298;2023-01-16T05:47:47;58120.16;;;-0.38;100.00
7836;BME280;3963;42.658;23.298;2023-01-16T05:50:14;58143.31;;;-0.31;100.00
7836;BME280;3963;42.658;23.298;2023-01-16T05:52:41;58108.69;;;-0.32;100.00
7836;BME280;3963;42.658;23.298;2023-01-16T05:55:08;58121.06;;;-0.13;100.00
7836;BME280;3963;42.658;23.298;2023-01-16T05:57:35;58147.91;;;-0.02;100.00
7836;BME280;3963;42.658;23.298;2023-01-16T06:00:04;58178.25;;;0.08;100.00
7836;BME280;3963;42.658;23.298;2023-01-16T06:02:32;58174.66;;;0.21;100.00
7836;BME280;3963;42.658;23.298;2023-01-16T06:04:59;58163.00;;;0.22;100.00
7836;BME280;3963;42.658;23.298;2023-01-16T06:07:26;58203.38;;;0.27;100.00
7836;BME280;3963;42.658;23.298;2023-01-16T06:09:53;58187.84;;;0.34;100.00
7836;BME280;3963;42.658;23.298;2023-01-16T06:12:21;58226.72;;;0.39;100.00
7836;BME280;3963;42.658;23.298;2023-01-16T06:14:47;58177.50;;;0.29;100.00
7836;BME280;3963;42.658;23.298;2023-01-16T06:17:14;58182.06;;;0.28;100.00
7836;BME280;3963;42.658;23.298;2023-01-16T06:19:43;58237.44;;;0.40;100.00
7836;BME280;3963;42.658;23.298;2023-01-16T06:22:10;58194.63;;;0.52;100.00
7836;BME280;3963;42.658;23.298;2023-01-16T06:24:37;58201.38;;;0.57;100.00
7836;BME280;3963;42.658;23.298;2023-01-16T06:27:04;58233.25;;;0.65;100.00
7836;BME280;3963;42.658;23.298;2023-01-16T06:29:31;58220.53;;;0.65;100.00
7836;BME280;3963;42.658;23.298;2023-01-16T06:31:58;58233.59;;;0.75;100.00
7836;BME280;3963;42.658;23.298;2023-01-16T06:34:24;58207.44;;;0.70;100.00
7836;BME280;3963;42.658;23.298;2023-01-16T06:36:52;58224.91;;;0.74;100.00
7836;BME280;3963;42.658;23.298;2023-01-16T06:39:19;58227.78;;;0.55;100.00
7836;BME280;3963;42.658;23.298;2023-01-16T06:41:46;58247.56;;;0.81;100.00
7836;BME280;3963;42.658;23.298;2023-01-16T06:44:13;58257.13;;;0.93;100.00
7836;BME280;3963;42.658;23.298;2023-01-16T06:46:40;58264.84;;;0.81;100.00
7836;BME280;3963;42.658;23.298;2023-01-16T06:49:06;58277.97;;;0.91;100.00
7836;BME280;3963;42.658;23.298;2023-01-16T06:51:33;58301.19;;;1.13;100.00
7836;BME280;3963;42.658;23.298;2023-01-16T06:54:01;58266.13;;;1.01;100.00
7836;BME280;3963;42.658;23.298;2023-01-16T06:56:28;58233.16;;;0.92;100.00
7836;BME280;3963;42.658;23.298;2023-01-16T06:58:55;58250.72;;;0.99;100.00
7836;BME280;3963;42.658;23.298;2023-01-16T07:01:22;58232.81;;;0.96;100.00
7836;BME280;3963;42.658;23.298;2023-01-16T07:03:48;58253.81;;;0.99;100.00
7836;BME280;3963;42.658;23.298;2023-01-16T07:06:15;58275.25;;;1.00;100.00
7836;BME280;3963;42.658;23.298;2023-01-16T07:08:42;58322.88;;;1.22;100.00
7836;BME280;3963;42.658;23.298;2023-01-16T07:11:11;58267.16;;;1.32;100.00
7836;BME280;3963;42.658;23.298;2023-01-16T07:13:37;58293.38;;;1.37;100.00
7836;BME280;3963;42.658;23.298;2023-01-16T07:16:04;58359.19;;;1.39;100.00
7836;BME280;3963;42.658;23.298;2023-01-16T07:18:49;58309.69;;;1.53;100.00
7836;BME280;3963;42.658;23.298;2023-01-16T07:21:33;58338.63;;;1.49;100.00
7836;BME280;3963;42.658;23.298;2023-01-16T07:24:19;58317.25;;;1.65;100.00
7836;BME280;3963;42.658;23.298;2023-01-16T07:26:51;58366.25;;;1.65;100.00
7836;BME280;3963;42.658;23.298;2023-01-16T07:29:19;58317.09;;;1.75;100.00
7836;BME280;3963;42.658;23.298;2023-01-16T07:31:46;58365.25;;;1.52;100.00
7836;BME280;3963;42.658;23.298;2023-01-16T07:34:13;58336.78;;;1.54;100.00
7836;BME280;3963;42.658;23.298;2023-01-16T07:36:40;58307.69;;;1.53;100.00
7836;BME280;3963;42.658;23.298;2023-01-16T07:39:06;58270.50;;;1.40;100.00
7836;BME280;3963;42.658;23.298;2023-01-16T07:41:33;58357.72;;;1.55;100.00
7836;BME280;3963;42.658;23.298;2023-01-16T07:44:01;58384.47;;;1.76;100.00
7836;BME280;3963;42.658;23.298;2023-01-16T07:46:28;58340.50;;;1.73;100.00
7836;BME280;3963;42.658;23.298;2023-01-16T07:48:55;58289.50;;;1.58;100.00
7836;BME280;3963;42.658;23.298;2023-01-16T07:51:22;58388.34;;;1.70;100.00
7836;BME280;3963;42.658;23.298;2023-01-16T07:53:49;58389.75;;;1.81;100.00
7836;BME280;3963;42.658;23.298;2023-01-16T07:56:16;58355.72;;;1.85;100.00
7836;BME280;3963;42.658;23.298;2023-01-16T07:58:42;58369.09;;;1.88;100.00
7836;BME280;3963;42.658;23.298;2023-01-16T08:01:11;58374.81;;;1.91;100.00
7836;BME280;3963;42.658;23.298;2023-01-16T08:03:37;58372.88;;;1.94;100.00
7836;BME280;3963;42.658;23.298;2023-01-16T08:06:05;58348.16;;;1.73;100.00
7836;BME280;3963;42.658;23.298;2023-01-16T08:08:32;58399.25;;;1.90;100.00
7836;BME280;3963;42.658;23.298;2023-01-16T08:11:00;58358.06;;;1.80;100.00
7836;BME280;3963;42.658;23.298;2023-01-16T08:13:49;58356.41;;;1.61;100.00
7836;BME280;3963;42.658;23.298;2023-01-16T08:16:17;58336.44;;;1.74;100.00
7836;BME280;3963;42.658;23.298;2023-01-16T08:18:44;58345.84;;;1.80;100.00
7836;BME280;3963;42.658;23.298;2023-01-16T08:21:14;58350.41;;;1.80;100.00
7836;BME280;3963;42.658;23.298;2023-01-16T08:23:41;58379.38;;;1.90;100.00
7836;BME280;3963;42.658;23.298;2023-01-16T08:26:07;58393.97;;;1.99;100.00
7836;BME280;3963;42.658;23.298;2023-01-16T08:28:34;58401.47;;;2.23;100.00
7836;BME280;3963;42.658;23.298;2023-01-16T08:31:03;58420.81;;;2.37;100.00
7836;BME280;3963;42.658;23.298;2023-01-16T08:33:34;58453.16;;;2.56;100.00
7836;BME280;3963;42.658;23.298;2023-01-16T08:36:02;58455.09;;;2.67;100.00
7836;BME280;3963;42.658;23.298;2023-01-16T08:38:29;58486.81;;;2.83;100.00
7836;BME280;3963;42.658;23.298;2023-01-16T08:40:56;58524.53;;;2.95;100.00
7836;BME280;3963;42.658;23.298;2023-01-16T08:43:23;58503.38;;;2.89;100.00
7836;BME280;3963;42.658;23.298;2023-01-16T08:46:16;58486.03;;;2.90;100.00
7836;BME280;3963;42.658;23.298;2023-01-16T08:49:03;58460.81;;;2.85;100.00
7836;BME280;3963;42.658;23.298;2023-01-16T08:51:47;58519.94;;;2.95;100.00
7836;BME280;3963;42.658;23.298;2023-01-16T08:54:14;58462.31;;;2.69;100.00
7836;BME280;3963;42.658;23.298;2023-01-16T08:56:40;58473.75;;;2.75;100.00
7836;BME280;3963;42.658;23.298;2023-01-16T08:59:08;58425.50;;;2.24;100.00
7836;BME280;3963;42.658;23.298;2023-01-16T09:01:35;58380.06;;;1.96;100.00
7836;BME280;3963;42.658;23.298;2023-01-16T09:04:04;58398.72;;;2.33;100.00
7836;BME280;3963;42.658;23.298;2023-01-16T09:06:30;58461.59;;;2.49;100.00
7836;BME280;3963;42.658;23.298;2023-01-16T09:09:01;58489.78;;;2.66;100.00
7836;BME280;3963;42.658;23.298;2023-01-16T09:11:28;58450.69;;;2.58;100.00
7836;BME280;3963;42.658;23.298;2023-01-16T09:14:12;58481.59;;;2.95;100.00
7836;BME280;3963;42.658;23.298;2023-01-16T09:16:39;58560.59;;;3.17;100.00
7836;BME280;3963;42.658;23.298;2023-01-16T09:19:07;58518.09;;;3.15;100.00
7836;BME280;3963;42.658;23.298;2023-01-16T09:21:34;58538.63;;;3.18;100.00
7836;BME280;3963;42.658;23.298;2023-01-16T09:24:01;58560.69;;;3.34;100.00
7836;BME280;3963;42.658;23.298;2023-01-16T09:26:28;58592.44;;;3.50;100.00
7836;BME280;3963;42.658;23.298;2023-01-16T09:28:55;58570.03;;;3.38;100.00
7836;BME280;3963;42.658;23.298;2023-01-16T09:31:22;58478.06;;;2.97;100.00
7836;BME280;3963;42.658;23.298;2023-01-16T09:33:49;58490.84;;;2.67;100.00
7836;BME280;3963;42.658;23.298;2023-01-16T09:36:19;58469.53;;;2.71;100.00
7836;BME280;3963;42.658;23.298;2023-01-16T09:38:46;58507.50;;;2.91;100.00
7836;BME280;3963;42.658;23.298;2023-01-16T09:41:14;58536.69;;;3.21;100.00
7836;BME280;3963;42.658;23.298;2023-01-16T09:44:05;58582.56;;;3.45;100.00
7836;BME280;3963;42.658;23.298;2023-01-16T09:46:36;58588.38;;;3.51;100.00
7836;BME280;3963;42.658;23.298;2023-01-16T09:49:14;58599.50;;;3.61;100.00
7836;BME280;3963;42.658;23.298;2023-01-16T09:51:45;58602.31;;;3.83;100.00
7836;BME280;3963;42.658;23.298;2023-01-16T09:54:38;58653.09;;;4.00;100.00
7836;BME280;3963;42.658;23.298;2023-01-16T09:57:27;58650.25;;;3.92;100.00
7836;BME280;3963;42.658;23.298;2023-01-16T10:00:15;58648.22;;;4.22;100.00
7836;BME280;3963;42.658;23.298;2023-01-16T10:02:43;58622.63;;;4.08;100.00
7836;BME280;3963;42.658;23.298;2023-01-16T10:05:10;58650.78;;;4.08;100.00
7836;BME280;3963;42.658;23.298;2023-01-16T10:07:49;58652.03;;;4.14;100.00
7836;BME280;3963;42.658;23.298;2023-01-16T10:10:36;58627.03;;;4.02;100.00
7836;BME280;3963;42.658;23.298;2023-01-16T10:13:13;58678.69;;;4.29;100.00
7836;BME280;3963;42.658;23.298;2023-01-16T10:15:47;58673.47;;;4.41;100.00
7836;BME280;3963;42.658;23.298;2023-01-16T10:18:27;58645.75;;;4.25;100.00
7836;BME280;3963;42.658;23.298;2023-01-16T10:21:24;58701.06;;;4.38;100.00
7836;BME280;3963;42.658;23.298;2023-01-16T10:24:00;58691.06;;;4.17;100.00
7836;BME280;3963;42.658;23.298;2023-01-16T10:26:29;58663.25;;;4.27;100.00
7836;BME280;3963;42.658;23.298;2023-01-16T10:29:17;58696.63;;;4.29;100.00
7836;BME280;3963;42.658;23.298;2023-01-16T10:31:48;58705.72;;;4.55;100.00
7836;BME280;3963;42.658;23.298;2023-01-16T10:34:19;58744.00;;;4.79;100.00
7836;BME280;3963;42.658;23.298;2023-01-16T10:36:49;58773.81;;;4.95;100.00
7836;BME280;3963;42.658;23.298;2023-01-16T10:39:20;58772.47;;;5.01;100.00
7836;BME280;3963;42.658;23.298;2023-01-16T10:41:49;58746.22;;;4.98;100.00
7836;BME280;3963;42.658;23.298;2023-01-16T10:44:35;58772.81;;;5.12;100.00
7836;BME280;3963;42.658;23.298;2023-01-16T10:47:22;58769.81;;;5.14;100.00
7836;BME280;3963;42.658;23.298;2023-01-16T10:50:08;58782.53;;;5.26;100.00
7836;BME280;3963;42.658;23.298;2023-01-16T10:52:36;58835.81;;;5.52;100.00
7836;BME280;3963;42.658;23.298;2023-01-16T10:55:06;58869.09;;;5.79;100.00
7836;BME280;3963;42.658;23.298;2023-01-16T10:57:34;58970.72;;;6.34;100.00
7836;BME280;3963;42.658;23.298;2023-01-16T11:00:05;58971.00;;;6.71;100.00
7836;BME280;3963;42.658;23.298;2023-01-16T11:02:34;59001.66;;;6.95;100.00
7836;BME280;3963;42.658;23.298;2023-01-16T11:05:23;59019.16;;;6.94;100.00
7836;BME280;3963;42.658;23.298;2023-01-16T11:07:53;59042.66;;;6.90;100.00
7836;BME280;3963;42.658;23.298;2023-01-16T11:10:22;59111.28;;;7.52;100.00
7836;BME280;3963;42.658;23.298;2023-01-16T11:12:51;59108.00;;;7.61;100.00
7836;BME280;3963;42.658;23.298;2023-01-16T11:15:35;59077.81;;;7.38;100.00
7836;BME280;3963;42.658;23.298;2023-01-16T11:18:35;59065.28;;;7.33;100.00
7836;BME280;3963;42.658;23.298;2023-01-16T11:21:14;59118.72;;;7.59;100.00
7836;BME280;3963;42.658;23.298;2023-01-16T11:23:43;59158.44;;;8.04;100.00
7836;BME280;3963;42.658;23.298;2023-01-16T11:26:13;59191.06;;;8.38;100.00
7836;BME280;3963;42.658;23.298;2023-01-16T11:28:43;59272.97;;;8.93;100.00
7836;BME280;3963;42.658;23.298;2023-01-16T11:31:14;59322.03;;;9.37;100.00
7836;BME280;3963;42.658;23.298;2023-01-16T11:33:45;59344.81;;;9.54;100.00
7836;BME280;3963;42.658;23.298;2023-01-16T11:36:16;59352.13;;;9.41;100.00
7836;BME280;3963;42.658;23.298;2023-01-16T11:38:45;59321.41;;;9.34;100.00
7836;BME280;3963;42.658;23.298;2023-01-16T11:41:17;59272.47;;;8.78;100.00
7836;BME280;3963;42.658;23.298;2023-01-16T11:43:47;59228.34;;;8.41;100.00
7836;BME280;3963;42.658;23.298;2023-01-16T11:46:49;59197.03;;;8.16;100.00
7836;BME280;3963;42.658;23.298;2023-01-16T11:49:24;59190.97;;;7.91;100.00
7836;BME280;3963;42.658;23.298;2023-01-16T11:51:52;59140.34;;;7.58;100.00
7836;BME280;3963;42.658;23.298;2023-01-16T11:54:24;59140.16;;;7.82;100.00
7836;BME280;3963;42.658;23.298;2023-01-16T11:57:06;59184.84;;;8.07;100.00
7836;BME280;3963;42.658;23.298;2023-01-16T11:59:45;59175.94;;;7.89;100.00
7836;BME280;3963;42.658;23.298;2023-01-16T12:02:27;59109.56;;;7.77;100.00
7836;BME280;3963;42.658;23.298;2023-01-16T12:05:09;59153.56;;;7.97;100.00
7836;BME280;3963;42.658;23.298;2023-01-16T12:08:07;59201.38;;;8.08;100.00
7836;BME280;3963;42.658;23.298;2023-01-16T12:10:51;59160.41;;;7.87;100.00
7836;BME280;3963;42.658;23.298;2023-01-16T12:13:25;59159.44;;;7.88;100.00
7836;BME280;3963;42.658;23.298;2023-01-16T12:16:20;59136.34;;;7.61;100.00
7836;BME280;3963;42.658;23.298;2023-01-16T12:19:00;59123.00;;;7.49;100.00
7836;BME280;3963;42.658;23.298;2023-01-16T12:21:32;59124.41;;;7.60;100.00
7836;BME280;3963;42.658;23.298;2023-01-16T12:24:14;59132.16;;;7.60;100.00
7836;BME280;3963;42.658;23.298;2023-01-16T12:26:53;59148.69;;;7.61;100.00
7836;BME280;3963;42.658;23.298;2023-01-16T12:29:32;59082.25;;;7.17;100.00
7836;BME280;3963;42.658;23.298;2023-01-16T12:32:12;59085.97;;;7.06;100.00
7836;BME280;3963;42.658;23.298;2023-01-16T12:37:49;59013.22;;;6.86;100.00
7836;BME280;3963;42.658;23.298;2023-01-16T12:40:28;59024.75;;;6.78;100.00
7836;BME280;3963;42.658;23.298;2023-01-16T12:43:04;59014.72;;;6.85;100.00
7836;BME280;3963;42.658;23.298;2023-01-16T12:45:48;58966.75;;;6.37;100.00
7836;BME280;3963;42.658;23.298;2023-01-16T12:48:36;58952.81;;;6.22;100.00
7836;BME280;3963;42.658;23.298;2023-01-16T12:51:20;58925.78;;;5.98;100.00
7836;BME280;3963;42.658;23.298;2023-01-16T12:56:58;58928.72;;;5.94;100.00
7836;BME280;3963;42.658;23.298;2023-01-16T12:59:30;58926.50;;;5.89;100.00
7836;BME280;3963;42.658;23.298;2023-01-16T13:02:10;58931.81;;;5.94;100.00
7836;BME280;3963;42.658;23.298;2023-01-16T13:04:42;58888.75;;;5.83;100.00
7836;BME280;3963;42.658;23.298;2023-01-16T13:07:14;58881.03;;;5.68;100.00
7836;BME280;3963;42.658;23.298;2023-01-16T13:09:45;58889.81;;;5.54;100.00
7836;BME280;3963;42.658;23.298;2023-01-16T13:12:18;58876.53;;;5.71;100.00
7836;BME280;3963;42.658;23.298;2023-01-16T13:15:06;58875.03;;;5.57;100.00
7836;BME280;3963;42.658;23.298;2023-01-16T13:17:42;58906.25;;;5.55;100.00
7836;BME280;3963;42.658;23.298;2023-01-16T13:20:12;58871.06;;;5.61;100.00
7836;BME280;3963;42.658;23.298;2023-01-16T13:22:45;58849.97;;;5.46;100.00
7836;BME280;3963;42.658;23.298;2023-01-16T13:25:18;58848.91;;;5.45;100.00
7836;BME280;3963;42.658;23.298;2023-01-16T13:27:52;58832.81;;;5.39;100.00
7836;BME280;3963;42.658;23.298;2023-01-16T13:30:21;58863.94;;;5.35;100.00
7836;BME280;3963;42.658;23.298;2023-01-16T13:32:52;58835.91;;;5.40;100.00
7836;BME280;3963;42.658;23.298;2023-01-16T13:35:23;58842.00;;;5.38;100.00
7836;BME280;3963;42.658;23.298;2023-01-16T13:38:02;58830.84;;;5.42;100.00
7836;BME280;3963;42.658;23.298;2023-01-16T13:40:42;58848.28;;;5.42;100.00